sensor_id;sensor_type;location;lat;lon;timestamp;P1;durP1;ratioP1;P2;durP2;ratioP2
16516;SDS011;8371;52.272;9.746;2023-03-01T00:02:01;2.10;;;2.00;;
16516;SDS011;8371;52.272;9.746;2023-03-01T00:04:26;1.73;;;1.73;;
16516;SDS011;8371;52.272;9.746;2023-03-01T00:06:53;1.63;;;1.63;;
16516;SDS011;8371;52.272;9.746;2023-03-01T00:09:19;2.30;;;2.20;;
16516;SDS011;8371;52.272;9.746;2023-03-01T00:11:44;2.23;;;2.13;;
16516;SDS011;8371;52.272;9.746;2023-03-01T00:14:11;2.70;;;2.50;;
16516;SDS011;8371;52.272;9.746;2023-03-01T00:16:38;2.13;;;2.10;;
16516;SDS011;8371;52.272;9.746;2023-03-01T00:19:06;2.40;;;2.30;;
16516;SDS011;8371;52.272;9.746;2023-03-01T00:21:34;1.77;;;1.77;;
16516;SDS011;8371;52.272;9.746;2023-03-01T00:24:00;2.07;;;1.97;;
16516;SDS011;8371;52.272;9.746;2023-03-01T00:26:27;1.63;;;1.63;;
16516;SDS011;8371;52.272;9.746;2023-03-01T00:28:53;1.87;;;1.77;;
16516;SDS011;8371;52.272;9.746;2023-03-01T00:31:23;2.17;;;2.07;;
16516;SDS011;8371;52.272;9.746;2023-03-01T00:33:59;2.23;;;2.13;;
16516;SDS011;8371;52.272;9.746;2023-03-01T00:36:28;2.23;;;2.13;;
16516;SDS011;8371;52.272;9.746;2023-03-01T00:38:56;2.27;;;2.17;;
16516;SDS011;8371;52.272;9.746;2023-03-01T00:41:22;2.03;;;1.93;;
16516;SDS011;8371;52.272;9.746;2023-03-01T00:43:49;2.10;;;2.00;;
16516;SDS011;8371;52.272;9.746;2023-03-01T00:46:16;2.23;;;2.13;;
16516;SDS011;8371;52.272;9.746;2023-03-01T00:48:44;1.80;;;1.80;;
16516;SDS011;8371;52.272;9.746;2023-03-01T00:51:16;2.13;;;2.03;;
16516;SDS011;8371;52.272;9.746;2023-03-01T00:53:39;2.10;;;2.00;;
16516;SDS011;8371;52.272;9.746;2023-03-01T00:56:06;2.20;;;2.10;;
16516;SDS011;8371;52.272;9.746;2023-03-01T00:58:33;1.50;;;1.50;;
16516;SDS011;8371;52.272;9.746;2023-03-01T01:01:00;2.03;;;1.93;;
16516;SDS011;8371;52.272;9.746;2023-03-01T01:03:26;2.13;;;2.03;;
16516;SDS011;8371;52.272;9.746;2023-03-01T01:05:52;2.20;;;2.10;;
16516;SDS011;8371;52.272;9.746;2023-03-01T01:08:18;2.00;;;1.90;;
16516;SDS011;8371;52.272;9.746;2023-03-01T01:10:45;2.23;;;2.13;;
16516;SDS011;8371;52.272;9.746;2023-03-01T01:13:12;1.60;;;1.60;;
16516;SDS011;8371;52.272;9.746;2023-03-01T01:15:38;2.33;;;2.23;;
16516;SDS011;8371;52.272;9.746;2023-03-01T01:18:05;2.30;;;2.20;;
16516;SDS011;8371;52.272;9.746;2023-03-01T01:20:31;1.70;;;1.70;;
16516;SDS011;8371;52.272;9.746;2023-03-01T01:22:56;1.80;;;1.70;;
16516;SDS011;8371;52.272;9.746;2023-03-01T01:25:22;2.27;;;2.17;;
16516;SDS011;8371;52.272;9.746;2023-03-01T01:27:50;2.00;;;2.00;;
16516;SDS011;8371;52.272;9.746;2023-03-01T01:30:16;1.70;;;1.63;;
16516;SDS011;8371;52.272;9.746;2023-03-01T01:32:42;1.73;;;1.73;;
16516;SDS011;8371;52.272;9.746;2023-03-01T01:35:08;1.93;;;1.83;;
16516;SDS011;8371;52.272;9.746;2023-03-01T01:37:34;2.30;;;2.20;;
16516;SDS011;8371;52.272;9.746;2023-03-01T01:40:00;2.20;;;2.13;;
16516;SDS011;8371;52.272;9.746;2023-03-01T01:42:28;1.77;;;1.77;;
16516;SDS011;8371;52.272;9.746;2023-03-01T01:47:43;1.67;;;1.67;;
16516;SDS011;8371;52.272;9.746;2023-03-01T01:50:09;1.90;;;1.80;;
16516;SDS011;8371;52.272;9.746;2023-03-01T01:52:38;1.97;;;1.87;;
16516;SDS011;8371;52.272;9.746;2023-03-01T01:55:07;2.13;;;2.03;;
16516;SDS011;8371;52.272;9.746;2023-03-01T01:57:37;1.93;;;1.90;;
16516;SDS011;8371;52.272;9.746;2023-03-01T02:00:09;1.40;;;1.40;;
16516;SDS011;8371;52.272;9.746;2023-03-01T02:02:37;1.83;;;1.73;;
16516;SDS011;8371;52.272;9.746;2023-03-01T02:07:48;2.20;;;2.10;;
16516;SDS011;8371;52.272;9.746;2023-03-01T02:10:14;1.67;;;1.67;;
16516;SDS011;8371;52.272;9.746;2023-03-01T02:12:41;2.13;;;2.03;;
16516;SDS011;8371;52.272;9.746;2023-03-01T02:15:07;1.93;;;1.93;;
16516;SDS011;8371;52.272;9.746;2023-03-01T02:17:34;1.77;;;1.77;;
16516;SDS011;8371;52.272;9.746;2023-03-01T02:22:39;1.97;;;1.87;;
16516;SDS011;8371;52.272;9.746;2023-03-01T02:27:56;2.10;;;2.00;;
16516;SDS011;8371;52.272;9.746;2023-03-01T02:30:22;1.77;;;1.77;;
16516;SDS011;8371;52.272;9.746;2023-03-01T02:32:52;1.97;;;1.87;;
16516;SDS011;8371;52.272;9.746;2023-03-01T02:35:19;2.20;;;2.10;;
16516;SDS011;8371;52.272;9.746;2023-03-01T02:37:45;2.27;;;2.17;;
16516;SDS011;8371;52.272;9.746;2023-03-01T02:40:14;1.97;;;1.90;;
16516;SDS011;8371;52.272;9.746;2023-03-01T02:42:53;1.53;;;1.53;;
16516;SDS011;8371;52.272;9.746;2023-03-01T02:45:18;1.77;;;1.73;;
16516;SDS011;8371;52.272;9.746;2023-03-01T02:47:43;1.80;;;1.80;;
16516;SDS011;8371;52.272;9.746;2023-03-01T02:50:19;1.70;;;1.70;;
16516;SDS011;8371;52.272;9.746;2023-03-01T02:53:05;1.87;;;1.77;;
16516;SDS011;8371;52.272;9.746;2023-03-01T02:55:35;1.57;;;1.57;;
16516;SDS011;8371;52.272;9.746;2023-03-01T02:58:02;1.53;;;1.53;;
16516;SDS011;8371;52.272;9.746;2023-03-01T03:00:30;1.87;;;1.77;;
16516;SDS011;8371;52.272;9.746;2023-03-01T03:02:58;1.93;;;1.90;;
16516;SDS011;8371;52.272;9.746;2023-03-01T03:05:25;1.60;;;1.60;;
16516;SDS011;8371;52.272;9.746;2023-03-01T03:07:52;1.70;;;1.60;;
16516;SDS011;8371;52.272;9.746;2023-03-01T03:10:20;1.70;;;1.70;;
16516;SDS011;8371;52.272;9.746;2023-03-01T03:12:51;1.63;;;1.63;;
16516;SDS011;8371;52.272;9.746;2023-03-01T03:15:18;2.30;;;2.20;;
16516;SDS011;8371;52.272;9.746;2023-03-01T03:17:44;2.03;;;1.93;;
16516;SDS011;8371;52.272;9.746;2023-03-01T03:20:11;1.73;;;1.63;;
16516;SDS011;8371;52.272;9.746;2023-03-01T03:22:41;1.80;;;1.80;;
16516;SDS011;8371;52.272;9.746;2023-03-01T03:25:07;1.90;;;1.90;;
16516;SDS011;8371;52.272;9.746;2023-03-01T03:27:36;2.00;;;1.93;;
16516;SDS011;8371;52.272;9.746;2023-03-01T03:30:04;2.10;;;2.00;;
16516;SDS011;8371;52.272;9.746;2023-03-01T03:32:35;2.23;;;2.13;;
16516;SDS011;8371;52.272;9.746;2023-03-01T03:35:02;2.00;;;1.90;;
16516;SDS011;8371;52.272;9.746;2023-03-01T03:37:31;1.60;;;1.60;;
16516;SDS011;8371;52.272;9.746;2023-03-01T03:40:15;1.70;;;1.60;;
16516;SDS011;8371;52.272;9.746;2023-03-01T03:42:41;1.53;;;1.53;;
16516;SDS011;8371;52.272;9.746;2023-03-01T03:45:06;1.50;;;1.50;;
16516;SDS011;8371;52.272;9.746;2023-03-01T03:47:33;1.87;;;1.70;;
16516;SDS011;8371;52.272;9.746;2023-03-01T03:49:58;2.50;;;2.40;;
16516;SDS011;8371;52.272;9.746;2023-03-01T03:52:24;1.73;;;1.63;;
16516;SDS011;8371;52.272;9.746;2023-03-01T03:54:50;2.13;;;2.03;;
16516;SDS011;8371;52.272;9.746;2023-03-01T03:57:15;2.30;;;2.20;;
16516;SDS011;8371;52.272;9.746;2023-03-01T03:59:41;2.03;;;1.93;;
16516;SDS011;8371;52.272;9.746;2023-03-01T04:02:07;1.70;;;1.70;;
16516;SDS011;8371;52.272;9.746;2023-03-01T04:04:34;2.27;;;2.17;;
16516;SDS011;8371;52.272;9.746;2023-03-01T04:06:59;1.90;;;1.90;;
16516;SDS011;8371;52.272;9.746;2023-03-01T04:09:25;2.10;;;2.00;;
16516;SDS011;8371;52.272;9.746;2023-03-01T04:11:51;1.60;;;1.60;;
16516;SDS011;8371;52.272;9.746;2023-03-01T04:14:16;1.57;;;1.57;;
16516;SDS011;8371;52.272;9.746;2023-03-01T04:16:42;2.17;;;1.97;;
16516;SDS011;8371;52.272;9.746;2023-03-01T04:19:07;1.90;;;1.80;;
16516;SDS011;8371;52.272;9.746;2023-03-01T04:21:34;2.07;;;1.97;;
16516;SDS011;8371;52.272;9.746;2023-03-01T04:24:01;1.63;;;1.63;;
16516;SDS011;8371;52.272;9.746;2023-03-01T04:26:28;1.57;;;1.57;;
16516;SDS011;8371;52.272;9.746;2023-03-01T04:28:54;1.53;;;1.43;;
16516;SDS011;8371;52.272;9.746;2023-03-01T04:31:20;1.93;;;1.83;;
16516;SDS011;8371;52.272;9.746;2023-03-01T04:33:47;1.90;;;1.80;;
16516;SDS011;8371;52.272;9.746;2023-03-01T04:36:15;1.67;;;1.67;;
16516;SDS011;8371;52.272;9.746;2023-03-01T04:38:42;2.30;;;2.20;;
16516;SDS011;8371;52.272;9.746;2023-03-01T04:41:10;2.00;;;1.90;;
16516;SDS011;8371;52.272;9.746;2023-03-01T04:43:36;1.90;;;1.80;;
16516;SDS011;8371;52.272;9.746;2023-03-01T04:46:03;1.80;;;1.80;;
16516;SDS011;8371;52.272;9.746;2023-03-01T04:48:32;1.60;;;1.60;;
16516;SDS011;8371;52.272;9.746;2023-03-01T04:50:58;1.70;;;1.70;;
16516;SDS011;8371;52.272;9.746;2023-03-01T04:53:24;2.00;;;1.90;;
16516;SDS011;8371;52.272;9.746;2023-03-01T04:55:50;1.70;;;1.70;;
16516;SDS011;8371;52.272;9.746;2023-03-01T04:58:16;1.57;;;1.57;;
16516;SDS011;8371;52.272;9.746;2023-03-01T05:00:42;1.53;;;1.53;;
16516;SDS011;8371;52.272;9.746;2023-03-01T05:03:07;2.00;;;1.90;;
16516;SDS011;8371;52.272;9.746;2023-03-01T05:05:38;1.87;;;1.77;;
16516;SDS011;8371;52.272;9.746;2023-03-01T05:08:03;2.10;;;2.00;;
16516;SDS011;8371;52.272;9.746;2023-03-01T05:10:32;1.80;;;1.80;;
16516;SDS011;8371;52.272;9.746;2023-03-01T05:13:00;1.50;;;1.50;;
16516;SDS011;8371;52.272;9.746;2023-03-01T05:15:28;1.90;;;1.80;;
16516;SDS011;8371;52.272;9.746;2023-03-01T05:17:55;1.70;;;1.60;;
16516;SDS011;8371;52.272;9.746;2023-03-01T05:20:27;1.57;;;1.57;;
16516;SDS011;8371;52.272;9.746;2023-03-01T05:22:57;1.63;;;1.63;;
16516;SDS011;8371;52.272;9.746;2023-03-01T05:25:24;1.50;;;1.50;;
16516;SDS011;8371;52.272;9.746;2023-03-01T05:27:50;1.77;;;1.77;;
16516;SDS011;8371;52.272;9.746;2023-03-01T05:30:16;1.73;;;1.70;;
16516;SDS011;8371;52.272;9.746;2023-03-01T05:32:47;1.80;;;1.70;;
16516;SDS011;8371;52.272;9.746;2023-03-01T05:35:15;2.00;;;1.90;;
16516;SDS011;8371;52.272;9.746;2023-03-01T05:37:43;1.60;;;1.60;;
16516;SDS011;8371;52.272;9.746;2023-03-01T05:40:12;2.10;;;1.90;;
16516;SDS011;8371;52.272;9.746;2023-03-01T05:42:43;2.10;;;2.00;;
16516;SDS011;8371;52.272;9.746;2023-03-01T05:45:11;1.63;;;1.63;;
16516;SDS011;8371;52.272;9.746;2023-03-01T05:47:43;1.40;;;1.40;;
16516;SDS011;8371;52.272;9.746;2023-03-01T05:50:10;1.57;;;1.57;;
16516;SDS011;8371;52.272;9.746;2023-03-01T05:52:37;1.93;;;1.83;;
16516;SDS011;8371;52.272;9.746;2023-03-01T05:55:04;1.70;;;1.70;;
16516;SDS011;8371;52.272;9.746;2023-03-01T05:57:30;1.70;;;1.70;;
16516;SDS011;8371;52.272;9.746;2023-03-01T05:59:56;1.53;;;1.53;;
16516;SDS011;8371;52.272;9.746;2023-03-01T06:02:21;2.20;;;2.00;;
16516;SDS011;8371;52.272;9.746;2023-03-01T06:04:47;1.47;;;1.47;;
16516;SDS011;8371;52.272;9.746;2023-03-01T06:07:13;2.00;;;1.90;;
16516;SDS011;8371;52.272;9.746;2023-03-01T06:09:38;1.87;;;1.87;;
16516;SDS011;8371;52.272;9.746;2023-03-01T06:12:04;2.13;;;2.03;;
16516;SDS011;8371;52.272;9.746;2023-03-01T06:14:30;1.97;;;1.87;;
16516;SDS011;8371;52.272;9.746;2023-03-01T06:16:57;2.07;;;1.97;;
16516;SDS011;8371;52.272;9.746;2023-03-01T06:19:23;1.80;;;1.70;;
16516;SDS011;8371;52.272;9.746;2023-03-01T06:21:49;1.87;;;1.77;;
16516;SDS011;8371;52.272;9.746;2023-03-01T06:24:14;1.80;;;1.80;;
16516;SDS011;8371;52.272;9.746;2023-03-01T06:26:40;2.40;;;2.30;;
16516;SDS011;8371;52.272;9.746;2023-03-01T06:29:07;2.33;;;2.23;;
16516;SDS011;8371;52.272;9.746;2023-03-01T06:31:33;1.40;;;1.40;;
16516;SDS011;8371;52.272;9.746;2023-03-01T06:33:59;1.90;;;1.90;;
16516;SDS011;8371;52.272;9.746;2023-03-01T06:36:25;1.90;;;1.80;;
16516;SDS011;8371;52.272;9.746;2023-03-01T06:38:51;2.10;;;2.00;;
16516;SDS011;8371;52.272;9.746;2023-03-01T06:41:16;2.27;;;2.17;;
16516;SDS011;8371;52.272;9.746;2023-03-01T06:43:42;2.50;;;2.00;;
16516;SDS011;8371;52.272;9.746;2023-03-01T06:46:07;2.07;;;1.97;;
16516;SDS011;8371;52.272;9.746;2023-03-01T06:48:33;2.87;;;2.30;;
16516;SDS011;8371;52.272;9.746;2023-03-01T06:50:59;2.00;;;1.90;;
16516;SDS011;8371;52.272;9.746;2023-03-01T06:53:26;2.20;;;2.10;;
16516;SDS011;8371;52.272;9.746;2023-03-01T06:55:54;2.50;;;2.40;;
16516;SDS011;8371;52.272;9.746;2023-03-01T06:58:22;2.27;;;2.17;;
16516;SDS011;8371;52.272;9.746;2023-03-01T07:00:48;2.00;;;1.90;;
16516;SDS011;8371;52.272;9.746;2023-03-01T07:03:14;2.90;;;2.20;;
16516;SDS011;8371;52.272;9.746;2023-03-01T07:05:40;2.20;;;2.10;;
16516;SDS011;8371;52.272;9.746;2023-03-01T07:08:06;2.47;;;2.37;;
16516;SDS011;8371;52.272;9.746;2023-03-01T07:10:31;2.80;;;2.70;;
16516;SDS011;8371;52.272;9.746;2023-03-01T07:12:57;2.53;;;2.43;;
16516;SDS011;8371;52.272;9.746;2023-03-01T07:15:24;2.53;;;2.43;;
16516;SDS011;8371;52.272;9.746;2023-03-01T07:17:50;2.33;;;2.23;;
16516;SDS011;8371;52.272;9.746;2023-03-01T07:20:17;2.33;;;2.23;;
16516;SDS011;8371;52.272;9.746;2023-03-01T07:22:44;2.30;;;2.20;;
16516;SDS011;8371;52.272;9.746;2023-03-01T07:25:10;2.30;;;2.20;;
16516;SDS011;8371;52.272;9.746;2023-03-01T07:27:36;2.27;;;2.17;;
16516;SDS011;8371;52.272;9.746;2023-03-01T07:30:02;2.37;;;2.27;;
16516;SDS011;8371;52.272;9.746;2023-03-01T07:32:28;2.03;;;2.03;;
16516;SDS011;8371;52.272;9.746;2023-03-01T07:34:54;1.97;;;1.97;;
16516;SDS011;8371;52.272;9.746;2023-03-01T07:37:19;2.60;;;2.50;;
16516;SDS011;8371;52.272;9.746;2023-03-01T07:39:45;2.00;;;2.00;;
16516;SDS011;8371;52.272;9.746;2023-03-01T07:42:11;2.30;;;2.20;;
16516;SDS011;8371;52.272;9.746;2023-03-01T07:44:36;2.03;;;1.93;;
16516;SDS011;8371;52.272;9.746;2023-03-01T07:47:03;2.27;;;2.17;;
16516;SDS011;8371;52.272;9.746;2023-03-01T07:49:29;2.43;;;2.33;;
16516;SDS011;8371;52.272;9.746;2023-03-01T07:51:55;2.13;;;2.07;;
16516;SDS011;8371;52.272;9.746;2023-03-01T07:54:21;2.07;;;1.97;;
16516;SDS011;8371;52.272;9.746;2023-03-01T07:56:47;2.30;;;2.20;;
16516;SDS011;8371;52.272;9.746;2023-03-01T07:59:13;2.40;;;2.30;;
16516;SDS011;8371;52.272;9.746;2023-03-01T08:01:39;2.57;;;2.47;;
16516;SDS011;8371;52.272;9.746;2023-03-01T08:04:04;2.20;;;2.10;;
16516;SDS011;8371;52.272;9.746;2023-03-01T08:06:33;2.87;;;2.77;;
16516;SDS011;8371;52.272;9.746;2023-03-01T08:09:01;2.30;;;2.20;;
16516;SDS011;8371;52.272;9.746;2023-03-01T08:11:27;2.30;;;2.20;;
16516;SDS011;8371;52.272;9.746;2023-03-01T08:13:54;1.93;;;1.93;;
16516;SDS011;8371;52.272;9.746;2023-03-01T08:16:20;2.20;;;2.10;;
16516;SDS011;8371;52.272;9.746;2023-03-01T08:18:45;2.67;;;2.57;;
16516;SDS011;8371;52.272;9.746;2023-03-01T08:21:12;2.60;;;2.50;;
16516;SDS011;8371;52.272;9.746;2023-03-01T08:23:40;3.27;;;3.17;;
16516;SDS011;8371;52.272;9.746;2023-03-01T08:26:14;3.40;;;3.30;;
16516;SDS011;8371;52.272;9.746;2023-03-01T08:28:39;2.90;;;2.80;;
16516;SDS011;8371;52.272;9.746;2023-03-01T08:31:13;3.10;;;3.00;;
16516;SDS011;8371;52.272;9.746;2023-03-01T08:33:47;3.43;;;3.33;;
16516;SDS011;8371;52.272;9.746;2023-03-01T08:36:16;3.33;;;3.23;;
16516;SDS011;8371;52.272;9.746;2023-03-01T08:38:42;3.97;;;3.87;;
16516;SDS011;8371;52.272;9.746;2023-03-01T08:41:08;4.37;;;4.17;;
16516;SDS011;8371;52.272;9.746;2023-03-01T08:43:34;3.67;;;3.57;;
16516;SDS011;8371;52.272;9.746;2023-03-01T08:46:00;4.13;;;3.83;;
16516;SDS011;8371;52.272;9.746;2023-03-01T08:48:27;3.70;;;3.50;;
16516;SDS011;8371;52.272;9.746;2023-03-01T08:50:53;3.40;;;3.20;;
16516;SDS011;8371;52.272;9.746;2023-03-01T08:53:19;3.70;;;3.50;;
16516;SDS011;8371;52.272;9.746;2023-03-01T08:55:45;3.90;;;3.70;;
16516;SDS011;8371;52.272;9.746;2023-03-01T08:58:11;3.90;;;3.70;;
16516;SDS011;8371;52.272;9.746;2023-03-01T09:00:37;4.10;;;3.90;;
16516;SDS011;8371;52.272;9.746;2023-03-01T09:03:02;4.10;;;3.90;;
16516;SDS011;8371;52.272;9.746;2023-03-01T09:05:30;3.97;;;3.77;;
16516;SDS011;8371;52.272;9.746;2023-03-01T09:07:59;3.30;;;3.20;;
16516;SDS011;8371;52.272;9.746;2023-03-01T09:10:25;4.17;;;3.80;;
16516;SDS011;8371;52.272;9.746;2023-03-01T09:12:51;3.57;;;3.37;;
16516;SDS011;8371;52.272;9.746;2023-03-01T09:15:16;4.83;;;4.63;;
16516;SDS011;8371;52.272;9.746;2023-03-01T09:17:42;4.90;;;4.70;;
16516;SDS011;8371;52.272;9.746;2023-03-01T09:20:09;4.50;;;4.30;;
16516;SDS011;8371;52.272;9.746;2023-03-01T09:22:35;4.00;;;3.80;;
16516;SDS011;8371;52.272;9.746;2023-03-01T09:25:01;3.83;;;3.73;;
16516;SDS011;8371;52.272;9.746;2023-03-01T09:27:27;4.50;;;4.20;;
16516;SDS011;8371;52.272;9.746;2023-03-01T09:29:52;4.07;;;3.97;;
16516;SDS011;8371;52.272;9.746;2023-03-01T09:32:18;3.37;;;3.27;;
16516;SDS011;8371;52.272;9.746;2023-03-01T09:34:44;4.03;;;3.83;;
16516;SDS011;8371;52.272;9.746;2023-03-01T09:37:28;4.03;;;3.73;;
16516;SDS011;8371;52.272;9.746;2023-03-01T09:39:54;3.20;;;3.10;;
16516;SDS011;8371;52.272;9.746;2023-03-01T09:42:20;2.97;;;2.87;;
16516;SDS011;8371;52.272;9.746;2023-03-01T09:44:48;4.20;;;3.83;;
16516;SDS011;8371;52.272;9.746;2023-03-01T09:47:24;3.30;;;3.20;;
16516;SDS011;8371;52.272;9.746;2023-03-01T09:52:43;3.17;;;3.03;;
16516;SDS011;8371;52.272;9.746;2023-03-01T09:55:24;3.33;;;3.13;;
16516;SDS011;8371;52.272;9.746;2023-03-01T09:57:53;2.53;;;2.43;;
16516;SDS011;8371;52.272;9.746;2023-03-01T10:03:17;2.83;;;2.73;;
16516;SDS011;8371;52.272;9.746;2023-03-01T10:05:57;4.23;;;4.03;;
16516;SDS011;8371;52.272;9.746;2023-03-01T10:11:21;3.27;;;3.17;;
16516;SDS011;8371;52.272;9.746;2023-03-01T10:16:56;4.27;;;4.07;;
16516;SDS011;8371;52.272;9.746;2023-03-01T10:19:40;3.40;;;3.20;;
16516;SDS011;8371;52.272;9.746;2023-03-01T10:22:11;3.70;;;3.40;;
16516;SDS011;8371;52.272;9.746;2023-03-01T10:24:48;4.20;;;4.00;;
16516;SDS011;8371;52.272;9.746;2023-03-01T10:27:17;3.20;;;3.10;;
16516;SDS011;8371;52.272;9.746;2023-03-01T10:30:05;3.47;;;3.37;;
16516;SDS011;8371;52.272;9.746;2023-03-01T10:32:36;3.30;;;3.20;;
16516;SDS011;8371;52.272;9.746;2023-03-01T10:35:21;4.40;;;4.10;;
16516;SDS011;8371;52.272;9.746;2023-03-01T10:38:02;3.60;;;3.40;;
16516;SDS011;8371;52.272;9.746;2023-03-01T10:40:34;4.57;;;3.70;;
16516;SDS011;8371;52.272;9.746;2023-03-01T10:43:05;3.97;;;3.77;;
16516;SDS011;8371;52.272;9.746;2023-03-01T10:45:32;3.97;;;3.77;;
16516;SDS011;8371;52.272;9.746;2023-03-01T10:50:37;2.93;;;2.73;;
16516;SDS011;8371;52.272;9.746;2023-03-01T10:53:05;3.20;;;3.00;;
16516;SDS011;8371;52.272;9.746;2023-03-01T10:55:37;2.97;;;2.77;;
16516;SDS011;8371;52.272;9.746;2023-03-01T11:00:54;3.47;;;3.27;;
16516;SDS011;8371;52.272;9.746;2023-03-01T11:03:24;3.63;;;3.43;;
16516;SDS011;8371;52.272;9.746;2023-03-01T11:06:02;3.80;;;3.60;;
16516;SDS011;8371;52.272;9.746;2023-03-01T11:08:42;3.53;;;3.43;;
16516;SDS011;8371;52.272;9.746;2023-03-01T11:16:35;2.83;;;2.73;;
16516;SDS011;8371;52.272;9.746;2023-03-01T11:21:53;2.87;;;2.77;;
16516;SDS011;8371;52.272;9.746;2023-03-01T11:24:34;3.40;;;3.20;;
16516;SDS011;8371;52.272;9.746;2023-03-01T11:27:02;2.90;;;2.80;;
16516;SDS011;8371;52.272;9.746;2023-03-01T11:29:32;3.10;;;2.90;;
16516;SDS011;8371;52.272;9.746;2023-03-01T11:32:04;2.87;;;2.77;;
16516;SDS011;8371;52.272;9.746;2023-03-01T11:40:05;3.07;;;2.97;;
16516;SDS011;8371;52.272;9.746;2023-03-01T11:42:44;3.53;;;3.23;;
16516;SDS011;8371;52.272;9.746;2023-03-01T11:45:24;2.90;;;2.80;;
16516;SDS011;8371;52.272;9.746;2023-03-01T11:48:02;3.03;;;2.83;;
16516;SDS011;8371;52.272;9.746;2023-03-01T11:50:35;2.97;;;2.87;;
16516;SDS011;8371;52.272;9.746;2023-03-01T11:56:09;2.33;;;2.23;;
16516;SDS011;8371;52.272;9.746;2023-03-01T12:01:23;2.87;;;2.77;;
16516;SDS011;8371;52.272;9.746;2023-03-01T12:07:03;2.70;;;2.60;;
16516;SDS011;8371;52.272;9.746;2023-03-01T12:09:46;2.80;;;2.60;;
16516;SDS011;8371;52.272;9.746;2023-03-01T12:12:27;2.93;;;2.83;;
16516;SDS011;8371;52.272;9.746;2023-03-01T12:18:05;2.90;;;2.80;;
16516;SDS011;8371;52.272;9.746;2023-03-01T12:26:15;2.60;;;2.50;;
16516;SDS011;8371;52.272;9.746;2023-03-01T12:31:36;2.67;;;2.50;;
16516;SDS011;8371;52.272;9.746;2023-03-01T12:37:21;2.60;;;2.50;;
16516;SDS011;8371;52.272;9.746;2023-03-01T12:42:46;1.70;;;1.70;;
16516;SDS011;8371;52.272;9.746;2023-03-01T12:50:53;1.90;;;1.80;;
16516;SDS011;8371;52.272;9.746;2023-03-01T12:53:32;2.50;;;2.40;;
16516;SDS011;8371;52.272;9.746;2023-03-01T12:56:06;2.50;;;2.30;;
16516;SDS011;8371;52.272;9.746;2023-03-01T13:04:12;1.80;;;1.80;;
16516;SDS011;8371;52.272;9.746;2023-03-01T13:17:55;2.53;;;2.43;;
16516;SDS011;8371;52.272;9.746;2023-03-01T13:20:25;2.20;;;2.10;;
16516;SDS011;8371;52.272;9.746;2023-03-01T13:23:03;2.10;;;2.00;;
16516;SDS011;8371;52.272;9.746;2023-03-01T13:25:31;2.87;;;2.77;;
16516;SDS011;8371;52.272;9.746;2023-03-01T13:30:47;2.10;;;2.00;;
16516;SDS011;8371;52.272;9.746;2023-03-01T13:35:55;1.60;;;1.60;;
16516;SDS011;8371;52.272;9.746;2023-03-01T13:41:16;5.73;;;2.47;;
16516;SDS011;8371;52.272;9.746;2023-03-01T13:43:44;2.43;;;2.33;;
16516;SDS011;8371;52.272;9.746;2023-03-01T13:46:20;1.87;;;1.77;;
16516;SDS011;8371;52.272;9.746;2023-03-01T13:48:45;2.50;;;2.40;;
16516;SDS011;8371;52.272;9.746;2023-03-01T13:51:13;2.43;;;2.33;;
16516;SDS011;8371;52.272;9.746;2023-03-01T13:53:40;2.00;;;1.90;;
16516;SDS011;8371;52.272;9.746;2023-03-01T13:56:10;2.27;;;2.17;;
16516;SDS011;8371;52.272;9.746;2023-03-01T13:58:55;2.20;;;2.10;;
16516;SDS011;8371;52.272;9.746;2023-03-01T14:03:56;2.33;;;2.23;;
16516;SDS011;8371;52.272;9.746;2023-03-01T14:06:24;2.27;;;2.17;;
16516;SDS011;8371;52.272;9.746;2023-03-01T14:08:52;2.60;;;2.50;;
16516;SDS011;8371;52.272;9.746;2023-03-01T14:17:00;3.70;;;2.13;;
16516;SDS011;8371;52.272;9.746;2023-03-01T14:19:27;2.10;;;2.00;;
16516;SDS011;8371;52.272;9.746;2023-03-01T14:24:55;2.53;;;2.43;;
16516;SDS011;8371;52.272;9.746;2023-03-01T14:27:27;2.97;;;2.83;;
16516;SDS011;8371;52.272;9.746;2023-03-01T14:29:59;2.00;;;1.90;;
16516;SDS011;8371;52.272;9.746;2023-03-01T14:32:28;2.10;;;2.00;;
16516;SDS011;8371;52.272;9.746;2023-03-01T14:34:55;2.13;;;2.03;;
16516;SDS011;8371;52.272;9.746;2023-03-01T14:37:35;1.77;;;1.77;;
16516;SDS011;8371;52.272;9.746;2023-03-01T14:40:03;2.10;;;2.00;;
16516;SDS011;8371;52.272;9.746;2023-03-01T14:42:30;1.93;;;1.83;;
16516;SDS011;8371;52.272;9.746;2023-03-01T14:44:58;1.37;;;1.37;;
16516;SDS011;8371;52.272;9.746;2023-03-01T14:47:30;2.10;;;2.00;;
16516;SDS011;8371;52.272;9.746;2023-03-01T14:49:59;1.77;;;1.77;;
16516;SDS011;8371;52.272;9.746;2023-03-01T14:52:31;1.80;;;1.80;;
16516;SDS011;8371;52.272;9.746;2023-03-01T14:55:07;1.23;;;1.23;;
16516;SDS011;8371;52.272;9.746;2023-03-01T14:57:47;1.53;;;1.33;;
16516;SDS011;8371;52.272;9.746;2023-03-01T15:00:19;1.50;;;1.50;;
16516;SDS011;8371;52.272;9.746;2023-03-01T15:02:47;1.80;;;1.80;;
16516;SDS011;8371;52.272;9.746;2023-03-01T15:05:15;1.70;;;1.60;;
16516;SDS011;8371;52.272;9.746;2023-03-01T15:07:43;1.63;;;1.53;;
16516;SDS011;8371;52.272;9.746;2023-03-01T15:10:27;1.60;;;1.50;;
16516;SDS011;8371;52.272;9.746;2023-03-01T15:12:55;1.30;;;1.30;;
16516;SDS011;8371;52.272;9.746;2023-03-01T15:17:55;1.63;;;1.33;;
16516;SDS011;8371;52.272;9.746;2023-03-01T15:20:24;1.37;;;1.03;;
16516;SDS011;8371;52.272;9.746;2023-03-01T15:22:53;1.27;;;1.27;;
16516;SDS011;8371;52.272;9.746;2023-03-01T15:25:21;1.50;;;1.50;;
16516;SDS011;8371;52.272;9.746;2023-03-01T15:27:49;1.37;;;1.33;;
16516;SDS011;8371;52.272;9.746;2023-03-01T15:30:25;1.20;;;1.20;;
16516;SDS011;8371;52.272;9.746;2023-03-01T15:35:58;1.23;;;1.23;;
16516;SDS011;8371;52.272;9.746;2023-03-01T15:41:21;1.70;;;1.60;;
16516;SDS011;8371;52.272;9.746;2023-03-01T15:43:50;1.50;;;1.50;;
16516;SDS011;8371;52.272;9.746;2023-03-01T15:46:20;1.30;;;1.30;;
16516;SDS011;8371;52.272;9.746;2023-03-01T15:48:55;1.40;;;1.30;;
16516;SDS011;8371;52.272;9.746;2023-03-01T15:51:27;1.17;;;1.17;;
16516;SDS011;8371;52.272;9.746;2023-03-01T15:54:04;1.00;;;1.00;;
16516;SDS011;8371;52.272;9.746;2023-03-01T15:56:32;1.50;;;1.40;;
16516;SDS011;8371;52.272;9.746;2023-03-01T15:58:59;1.07;;;1.07;;
16516;SDS011;8371;52.272;9.746;2023-03-01T16:01:26;1.50;;;1.50;;
16516;SDS011;8371;52.272;9.746;2023-03-01T16:03:52;1.57;;;1.57;;
16516;SDS011;8371;52.272;9.746;2023-03-01T16:06:19;1.53;;;1.50;;
16516;SDS011;8371;52.272;9.746;2023-03-01T16:08:44;1.40;;;1.40;;
16516;SDS011;8371;52.272;9.746;2023-03-01T16:11:13;1.50;;;1.50;;
16516;SDS011;8371;52.272;9.746;2023-03-01T16:13:39;2.40;;;2.30;;
16516;SDS011;8371;52.272;9.746;2023-03-01T16:16:05;1.70;;;1.60;;
16516;SDS011;8371;52.272;9.746;2023-03-01T16:18:32;1.70;;;1.60;;
16516;SDS011;8371;52.272;9.746;2023-03-01T16:20:58;1.80;;;1.70;;
16516;SDS011;8371;52.272;9.746;2023-03-01T16:23:24;2.40;;;2.20;;
16516;SDS011;8371;52.272;9.746;2023-03-01T16:25:50;2.30;;;2.20;;
16516;SDS011;8371;52.272;9.746;2023-03-01T16:28:16;2.00;;;1.90;;
16516;SDS011;8371;52.272;9.746;2023-03-01T16:30:45;1.97;;;1.87;;
16516;SDS011;8371;52.272;9.746;2023-03-01T16:33:16;1.37;;;1.37;;
16516;SDS011;8371;52.272;9.746;2023-03-01T16:35:41;1.50;;;1.40;;
16516;SDS011;8371;52.272;9.746;2023-03-01T16:38:08;1.57;;;1.47;;
16516;SDS011;8371;52.272;9.746;2023-03-01T16:40:34;1.20;;;1.20;;
16516;SDS011;8371;52.272;9.746;2023-03-01T16:43:00;1.40;;;1.40;;
16516;SDS011;8371;52.272;9.746;2023-03-01T16:45:27;1.80;;;1.70;;
16516;SDS011;8371;52.272;9.746;2023-03-01T16:47:53;1.30;;;1.30;;
16516;SDS011;8371;52.272;9.746;2023-03-01T16:50:19;1.27;;;1.27;;
16516;SDS011;8371;52.272;9.746;2023-03-01T16:52:45;1.20;;;1.20;;
16516;SDS011;8371;52.272;9.746;2023-03-01T16:55:11;1.07;;;1.07;;
16516;SDS011;8371;52.272;9.746;2023-03-01T16:57:37;1.43;;;1.03;;
16516;SDS011;8371;52.272;9.746;2023-03-01T17:00:04;1.30;;;1.30;;
16516;SDS011;8371;52.272;9.746;2023-03-01T17:02:33;1.30;;;1.30;;
16516;SDS011;8371;52.272;9.746;2023-03-01T17:04:59;1.60;;;1.50;;
16516;SDS011;8371;52.272;9.746;2023-03-01T17:07:25;2.20;;;2.10;;